Time;durP1;ratioP1;P1;durP2;ratioP2;P2;SDS_P1;SDS_P2;PMS_P1;PMS_P2;Temp;Humidity;BMP_temperature;BMP_pressure;BME280_temperature;BME280_humidity;BME280_pressure;Samples;Min_cycle;Max_cycle;Signal;HPM_P1;HPM_P2
2022/09/08 00:00:06;;;;;;;1.33;1.23;;;;;;;;;;5100246;28;20210;-67
2022/09/08 00:02:35;;;;;;;1.58;1.48;;;;;;;;;;5099820;28;20265;-66
2022/09/08 00:05:04;;;;;;;1.98;1.27;;;;;;;;;;5099773;28;20227;-67
2022/09/08 00:07:32;;;;;;;1.50;1.40;;;;;;;;;;5083243;28;20278;-67
2022/09/08 00:10:01;;;;;;;1.75;1.50;;;;;;;;;;5079484;28;20270;-67
2022/09/08 00:12:29;;;;;;;1.50;1.40;;;;;;;;;;5078706;28;20204;-67
2022/09/08 00:14:56;;;;;;;1.50;1.30;;;;;;;;;;5079537;28;20200;-67
2022/09/08 00:17:24;;;;;;;1.40;1.30;;;;;;;;;;5079348;28;20548;-66
2022/09/08 00:19:52;;;;;;;1.70;1.60;;;;;;;;;;5079427;28;20205;-67
2022/09/08 00:22:20;;;;;;;1.67;1.58;;;;;;;;;;5079510;28;20458;-67
2022/09/08 00:24:48;;;;;;;1.50;1.40;;;;;;;;;;5079327;28;20239;-67
2022/09/08 00:27:15;;;;;;;1.80;1.38;;;;;;;;;;5079175;28;20216;-67
2022/09/08 00:29:43;;;;;;;1.60;1.30;;;;;;;;;;5078911;28;20215;-67
2022/09/08 00:32:10;;;;;;;1.42;1.33;;;;;;;;;;5079109;28;20600;-66
2022/09/08 00:34:37;;;;;;;1.70;1.60;;;;;;;;;;5092331;28;20434;-66
2022/09/08 00:37:05;;;;;;;1.48;1.38;;;;;;;;;;5098983;28;20572;-68
2022/09/08 00:39:34;;;;;;;1.52;1.42;;;;;;;;;;5098828;28;20489;-66
2022/09/08 00:42:01;;;;;;;1.92;1.40;;;;;;;;;;5099053;28;20204;-66
2022/09/08 00:44:48;;;;;;;1.50;1.40;;;;;;;;;;5098812;28;20591;-67
2022/09/08 00:47:17;;;;;;;1.40;1.30;;;;;;;;;;5098407;28;20223;-66
2022/09/08 00:49:45;;;;;;;1.50;1.40;;;;;;;;;;5099177;28;20219;-66
2022/09/08 00:52:12;;;;;;;1.58;1.48;;;;;;;;;;5099367;28;20211;-66
2022/09/08 00:54:42;;;;;;;1.52;1.42;;;;;;;;;;5099146;28;20219;-66
2022/09/08 00:57:09;;;;;;;1.20;1.20;;;;;;;;;;5098825;28;20246;-66
2022/09/08 00:59:37;;;;;;;1.70;1.60;;;;;;;;;;5098934;28;20203;-66
2022/09/08 01:02:25;;;;;;;1.58;1.38;;;;;;;;;;5085437;28;20200;-66
2022/09/08 01:04:55;;;;;;;1.65;1.55;;;;;;;;;;5077796;28;20824;-67
2022/09/08 01:13:06;;;;;;;1.50;1.40;;;;;;;;;;5078210;28;20646;-67
2022/09/08 01:15:34;;;;;;;1.63;1.52;;;;;;;;;;5078620;28;20201;-67
2022/09/08 01:18:02;;;;;;;1.40;1.30;;;;;;;;;;5078301;28;20212;-67
2022/09/08 01:20:31;;;;;;;1.58;1.48;;;;;;;;;;5078255;28;20204;-66
2022/09/08 01:23:14;;;;;;;1.50;1.40;;;;;;;;;;5078108;28;20204;-68
2022/09/08 01:25:53;;;;;;;1.80;1.70;;;;;;;;;;5078015;28;20235;-66
2022/09/08 01:28:24;;;;;;;1.50;1.40;;;;;;;;;;5080003;28;20204;-66
2022/09/08 01:30:52;;;;;;;1.73;1.60;;;;;;;;;;5098167;28;20199;-66
2022/09/08 01:33:20;;;;;;;1.58;1.48;;;;;;;;;;5098737;28;20237;-66
2022/09/08 01:35:48;;;;;;;1.35;1.35;;;;;;;;;;5095715;28;20203;-67
2022/09/08 01:38:16;;;;;;;1.60;1.50;;;;;;;;;;5097305;28;20222;-66
2022/09/08 01:40:43;;;;;;;1.50;1.40;;;;;;;;;;5097741;28;20243;-66
2022/09/08 01:43:11;;;;;;;1.52;1.42;;;;;;;;;;5098442;28;20632;-67
2022/09/08 01:45:40;;;;;;;1.90;1.50;;;;;;;;;;5098660;28;20250;-66
2022/09/08 01:48:08;;;;;;;1.35;1.30;;;;;;;;;;5098190;28;20689;-67
2022/09/08 01:50:36;;;;;;;1.60;1.50;;;;;;;;;;5098488;28;20215;-67
2022/09/08 01:53:04;;;;;;;1.38;1.27;;;;;;;;;;5097866;28;20253;-67
2022/09/08 01:55:31;;;;;;;1.50;1.40;;;;;;;;;;5091914;28;20200;-67
2022/09/08 01:57:59;;;;;;;1.60;1.50;;;;;;;;;;5077241;28;20211;-67
2022/09/08 02:00:26;;;;;;;1.55;1.45;;;;;;;;;;5077635;28;20204;-66
2022/09/08 02:02:55;;;;;;;1.60;1.50;;;;;;;;;;5077460;28;20211;-66
2022/09/08 02:05:22;;;;;;;1.70;1.60;;;;;;;;;;5077505;28;20228;-66
2022/09/08 02:07:50;;;;;;;1.42;1.33;;;;;;;;;;5077115;28;20204;-66
2022/09/08 02:10:17;;;;;;;1.42;1.33;;;;;;;;;;5077136;28;20204;-66
2022/09/08 02:12:45;;;;;;;1.58;1.48;;;;;;;;;;5077716;28;20469;-66
2022/09/08 02:15:13;;;;;;;1.52;1.42;;;;;;;;;;5077702;28;20200;-66
2022/09/08 02:17:40;;;;;;;1.60;1.50;;;;;;;;;;5077413;28;20205;-67
2022/09/08 02:20:09;;;;;;;1.63;1.52;;;;;;;;;;5077408;28;20201;-67
2022/09/08 02:22:37;;;;;;;1.40;1.30;;;;;;;;;;5078206;28;20235;-66
2022/09/08 02:25:05;;;;;;;1.85;1.75;;;;;;;;;;5097825;28;20266;-66
2022/09/08 02:27:32;;;;;;;1.67;1.50;;;;;;;;;;5097410;28;20211;-66
2022/09/08 02:30:00;;;;;;;1.83;1.55;;;;;;;;;;5097381;28;20204;-66
2022/09/08 02:32:27;;;;;;;1.60;1.50;;;;;;;;;;5097280;28;20665;-67
2022/09/08 02:34:55;;;;;;;1.73;1.60;;;;;;;;;;5097608;28;20199;-67
2022/09/08 02:37:24;;;;;;;1.48;1.33;;;;;;;;;;5097230;28;20243;-66
2022/09/08 02:39:51;;;;;;;1.65;1.55;;;;;;;;;;5097115;28;20491;-67
2022/09/08 02:42:18;;;;;;;1.38;1.27;;;;;;;;;;5096760;28;20207;-66
2022/09/08 02:44:46;;;;;;;2.25;1.45;;;;;;;;;;5096993;28;20392;-67
2022/09/08 02:47:13;;;;;;;1.80;1.70;;;;;;;;;;5096804;28;20227;-66
2022/09/08 02:49:41;;;;;;;1.80;1.65;;;;;;;;;;5096965;28;20204;-67
2022/09/08 02:52:08;;;;;;;1.73;1.63;;;;;;;;;;5078763;28;20200;-67
2022/09/08 02:54:37;;;;;;;1.60;1.50;;;;;;;;;;5076994;28;20200;-67
2022/09/08 02:57:05;;;;;;;1.90;1.50;;;;;;;;;;5076873;28;20212;-66
2022/09/08 02:59:32;;;;;;;1.67;1.58;;;;;;;;;;5076969;28;20239;-66
2022/09/08 03:01:59;;;;;;;2.17;1.70;;;;;;;;;;5076748;28;20215;-66
2022/09/08 03:04:27;;;;;;;1.80;1.35;;;;;;;;;;5076532;28;20642;-66
2022/09/08 03:06:54;;;;;;;2.13;1.60;;;;;;;;;;5076823;28;20604;-66
2022/09/08 03:09:21;;;;;;;1.70;1.60;;;;;;;;;;5076913;28;20303;-66
2022/09/08 03:11:50;;;;;;;1.60;1.50;;;;;;;;;;5076963;28;20208;-68
2022/09/08 03:14:18;;;;;;;1.67;1.58;;;;;;;;;;5077030;28;20216;-67
2022/09/08 03:16:46;;;;;;;1.67;1.58;;;;;;;;;;5076363;28;20228;-66
2022/09/08 03:19:13;;;;;;;1.60;1.50;;;;;;;;;;5092015;28;20721;-67
2022/09/08 03:21:41;;;;;;;1.50;1.40;;;;;;;;;;5096747;28;20203;-67
2022/09/08 03:24:08;;;;;;;1.70;1.60;;;;;;;;;;5096604;28;20211;-66
2022/09/08 03:26:35;;;;;;;1.80;1.70;;;;;;;;;;5096088;28;20242;-66
2022/09/08 03:29:06;;;;;;;1.70;1.60;;;;;;;;;;5096839;28;20204;-66
2022/09/08 03:31:35;;;;;;;1.60;1.50;;;;;;;;;;5096799;28;20214;-66
2022/09/08 03:34:02;;;;;;;1.60;1.50;;;;;;;;;;5096521;28;20203;-66
2022/09/08 03:36:30;;;;;;;1.60;1.40;;;;;;;;;;5096465;28;20191;-66
2022/09/08 03:38:57;;;;;;;1.90;1.80;;;;;;;;;;5096401;28;20223;-66
2022/09/08 03:41:25;;;;;;;1.80;1.70;;;;;;;;;;5096426;28;20226;-67
2022/09/08 03:43:52;;;;;;;1.90;1.80;;;;;;;;;;5095827;28;20311;-66
2022/09/08 03:46:21;;;;;;;1.73;1.63;;;;;;;;;;5082961;28;20225;-67
2022/09/08 03:48:48;;;;;;;1.73;1.50;;;;;;;;;;5079303;28;20204;-66
2022/09/08 03:51:17;;;;;;;2.30;1.90;;;;;;;;;;5079039;28;20212;-66
2022/09/08 03:53:45;;;;;;;1.90;1.80;;;;;;;;;;5078598;28;20211;-66
2022/09/08 03:56:13;;;;;;;1.90;1.80;;;;;;;;;;5078228;28;20200;-66
2022/09/08 03:58:40;;;;;;;1.60;1.50;;;;;;;;;;5078536;28;20608;-67
2022/09/08 04:01:09;;;;;;;1.75;1.65;;;;;;;;;;5078818;28;20204;-67
2022/09/08 04:03:37;;;;;;;1.67;1.55;;;;;;;;;;5079248;28;20220;-66
2022/09/08 04:06:05;;;;;;;1.58;1.48;;;;;;;;;;5077773;28;20224;-68
2022/09/08 04:08:33;;;;;;;1.70;1.60;;;;;;;;;;5078138;28;20579;-66
2022/09/08 04:11:00;;;;;;;1.98;1.88;;;;;;;;;;5077798;28;20204;-68
2022/09/08 04:13:28;;;;;;;1.90;1.80;;;;;;;;;;5089692;28;20195;-66
2022/09/08 04:15:55;;;;;;;1.60;1.50;;;;;;;;;;5098529;28;20489;-66
2022/09/08 04:18:23;;;;;;;1.60;1.50;;;;;;;;;;5098579;28;20635;-67
2022/09/08 04:20:59;;;;;;;1.80;1.70;;;;;;;;;;5098791;28;20203;-66
2022/09/08 04:23:27;;;;;;;2.17;1.80;;;;;;;;;;5098177;28;20200;-68
2022/09/08 04:25:58;;;;;;;2.35;1.80;;;;;;;;;;5099570;28;20708;-66
2022/09/08 04:28:26;;;;;;;1.95;1.85;;;;;;;;;;5098783;28;20619;-66
2022/09/08 04:30:53;;;;;;;1.60;1.50;;;;;;;;;;5098623;28;20208;-66
2022/09/08 04:33:20;;;;;;;1.80;1.70;;;;;;;;;;5097889;28;20203;-66
2022/09/08 04:35:48;;;;;;;1.95;1.80;;;;;;;;;;5098882;28;20210;-67
2022/09/08 04:38:17;;;;;;;1.90;1.80;;;;;;;;;;5097136;28;20207;-67
2022/09/08 04:40:44;;;;;;;2.00;1.90;;;;;;;;;;5085617;28;20192;-66
2022/09/08 04:43:11;;;;;;;1.90;1.80;;;;;;;;;;5077277;28;20204;-67
2022/09/08 04:45:39;;;;;;;2.00;1.90;;;;;;;;;;5077508;28;20228;-67
2022/09/08 04:48:06;;;;;;;1.90;1.80;;;;;;;;;;5077080;28;20463;-66
2022/09/08 04:50:33;;;;;;;2.13;1.92;;;;;;;;;;5077303;28;20569;-66
2022/09/08 04:53:01;;;;;;;2.50;2.28;;;;;;;;;;5076573;28;20211;-66
2022/09/08 04:55:29;;;;;;;2.10;2.00;;;;;;;;;;5076783;28;20196;-66
2022/09/08 04:57:57;;;;;;;2.10;2.00;;;;;;;;;;5076050;28;20253;-67
2022/09/08 05:00:24;;;;;;;2.22;2.03;;;;;;;;;;5074754;28;20615;-67
2022/09/08 05:02:51;;;;;;;2.25;1.90;;;;;;;;;;5074850;28;20397;-66
2022/09/08 05:05:19;;;;;;;2.20;2.10;;;;;;;;;;5074745;28;20248;-66
2022/09/08 05:07:50;;;;;;;2.05;1.92;;;;;;;;;;5080948;28;20211;-66
2022/09/08 05:10:18;;;;;;;2.15;1.95;;;;;;;;;;5093620;28;20218;-67
2022/09/08 05:12:47;;;;;;;1.90;1.80;;;;;;;;;;5095063;28;20203;-67
2022/09/08 05:15:14;;;;;;;2.00;1.90;;;;;;;;;;5095253;28;20264;-66
2022/09/08 05:17:42;;;;;;;2.10;2.00;;;;;;;;;;5094940;28;20614;-66
2022/09/08 05:20:09;;;;;;;2.35;2.15;;;;;;;;;;5094845;28;20207;-67
2022/09/08 05:22:36;;;;;;;1.90;1.80;;;;;;;;;;5094667;28;20211;-67
2022/09/08 05:25:04;;;;;;;2.20;2.00;;;;;;;;;;5095107;28;20218;-67
2022/09/08 05:27:31;;;;;;;2.00;1.90;;;;;;;;;;5093910;28;20725;-66
2022/09/08 05:30:00;;;;;;;1.70;1.60;;;;;;;;;;5093547;28;20210;-67
2022/09/08 05:32:28;;;;;;;2.03;1.90;;;;;;;;;;5093856;28;20212;-68
2022/09/08 05:34:55;;;;;;;1.90;1.80;;;;;;;;;;5087416;28;20232;-67
2022/09/08 05:37:27;;;;;;;1.90;1.70;;;;;;;;;;5073322;28;20200;-66
2022/09/08 05:39:55;;;;;;;2.22;2.03;;;;;;;;;;5073262;28;20211;-67
2022/09/08 05:42:23;;;;;;;2.00;1.90;;;;;;;;;;5073719;28;20208;-66
2022/09/08 05:44:50;;;;;;;2.10;1.90;;;;;;;;;;5072383;28;20694;-66
2022/09/08 05:47:19;;;;;;;1.90;1.80;;;;;;;;;;5071708;28;20236;-66
2022/09/08 05:49:46;;;;;;;1.83;1.73;;;;;;;;;;5072962;28;20205;-67
2022/09/08 05:52:14;;;;;;;1.90;1.80;;;;;;;;;;5073678;28;20254;-68
2022/09/08 05:54:41;;;;;;;1.98;1.88;;;;;;;;;;5074120;28;20215;-67
2022/09/08 05:57:08;;;;;;;2.03;1.92;;;;;;;;;;5074810;28;20208;-67
2022/09/08 05:59:36;;;;;;;1.70;1.60;;;;;;;;;;5074393;28;20482;-67
2022/09/08 06:02:03;;;;;;;1.88;1.77;;;;;;;;;;5077253;28;20207;-66
2022/09/08 06:04:32;;;;;;;1.80;1.70;;;;;;;;;;5094190;28;20606;-67
2022/09/08 06:06:59;;;;;;;2.15;1.80;;;;;;;;;;5095341;28;20504;-68
2022/09/08 06:09:27;;;;;;;2.03;1.92;;;;;;;;;;5095091;28;20206;-68
2022/09/08 06:11:54;;;;;;;1.83;1.73;;;;;;;;;;5095887;28;20203;-67
2022/09/08 06:14:22;;;;;;;2.30;2.10;;;;;;;;;;5094674;28;20592;-67
2022/09/08 06:16:50;;;;;;;1.92;1.83;;;;;;;;;;5094948;28;20199;-66
2022/09/08 06:19:17;;;;;;;2.38;2.17;;;;;;;;;;5094577;28;20204;-67
2022/09/08 06:21:46;;;;;;;2.30;2.20;;;;;;;;;;5094924;28;20222;-68
2022/09/08 06:24:14;;;;;;;2.55;2.30;;;;;;;;;;5095629;28;20214;-67
2022/09/08 06:26:54;;;;;;;2.30;2.15;;;;;;;;;;5095177;28;20627;-67
2022/09/08 06:29:28;;;;;;;2.50;2.30;;;;;;;;;;5094389;28;20226;-66
2022/09/08 06:32:00;;;;;;;2.30;2.20;;;;;;;;;;5074072;28;20208;-66
2022/09/08 06:34:28;;;;;;;2.08;1.98;;;;;;;;;;5076120;28;20204;-67
2022/09/08 06:37:01;;;;;;;2.20;2.00;;;;;;;;;;5075421;28;20207;-66
2022/09/08 06:39:29;;;;;;;2.38;2.17;;;;;;;;;;5075102;28;20204;-66
2022/09/08 06:41:58;;;;;;;2.40;2.20;;;;;;;;;;5074537;28;20295;-67
2022/09/08 06:44:27;;;;;;;2.42;2.22;;;;;;;;;;5075584;28;20216;-66
2022/09/08 06:46:55;;;;;;;2.40;2.30;;;;;;;;;;5074165;28;20243;-67
2022/09/08 06:49:26;;;;;;;2.53;2.33;;;;;;;;;;5073710;28;20212;-67
2022/09/08 06:51:59;;;;;;;2.60;2.30;;;;;;;;;;5074528;28;20228;-66
2022/09/08 06:54:51;;;;;;;2.38;2.17;;;;;;;;;;5073640;28;20199;-67
2022/09/08 06:57:24;;;;;;;3.40;2.70;;;;;;;;;;5077571;28;20191;-67
2022/09/08 06:59:55;;;;;;;2.30;2.20;;;;;;;;;;5094442;28;20208;-66
2022/09/08 07:02:31;;;;;;;3.03;2.22;;;;;;;;;;5094082;28;20266;-67
2022/09/08 07:05:01;;;;;;;2.72;2.53;;;;;;;;;;5093686;28;20211;-66
2022/09/08 07:07:33;;;;;;;3.00;2.45;;;;;;;;;;5092639;28;20227;-67
2022/09/08 07:10:04;;;;;;;2.83;2.60;;;;;;;;;;5094157;28;20203;-66
2022/09/08 07:12:41;;;;;;;2.65;2.45;;;;;;;;;;5093669;28;20553;-66
2022/09/08 07:15:16;;;;;;;2.28;2.17;;;;;;;;;;5094317;28;20195;-67
2022/09/08 07:17:47;;;;;;;2.38;2.25;;;;;;;;;;5093691;28;20586;-66
2022/09/08 07:20:15;;;;;;;2.47;2.28;;;;;;;;;;5093631;28;20204;-67
2022/09/08 07:22:47;;;;;;;2.50;2.30;;;;;;;;;;5095317;28;20234;-66
2022/09/08 07:25:27;;;;;;;2.50;2.30;;;;;;;;;;5087287;28;20201;-67
2022/09/08 07:27:58;;;;;;;2.60;2.40;;;;;;;;;;5077263;28;20232;-66
2022/09/08 07:30:25;;;;;;;2.70;2.50;;;;;;;;;;5076789;28;20512;-66
2022/09/08 07:32:55;;;;;;;2.10;2.00;;;;;;;;;;5077057;28;20204;-66
2022/09/08 07:35:27;;;;;;;3.65;2.70;;;;;;;;;;5077413;28;20204;-66
2022/09/08 07:37:56;;;;;;;2.83;2.60;;;;;;;;;;5076932;28;20192;-66
2022/09/08 07:40:25;;;;;;;2.42;2.22;;;;;;;;;;5075991;28;20212;-66
2022/09/08 07:42:56;;;;;;;2.95;2.30;;;;;;;;;;5077298;28;20589;-66
2022/09/08 07:45:28;;;;;;;2.80;2.47;;;;;;;;;;5077155;28;20704;-66
2022/09/08 07:48:02;;;;;;;2.80;2.60;;;;;;;;;;5077191;28;20225;-67
2022/09/08 07:53:14;;;;;;;2.50;2.30;;;;;;;;;;5090014;28;20192;-66
2022/09/08 07:55:42;;;;;;;2.50;2.30;;;;;;;;;;5097076;28;20214;-66
2022/09/08 07:58:17;;;;;;;2.30;2.10;;;;;;;;;;5096506;28;20200;-67
2022/09/08 08:00:48;;;;;;;2.58;2.38;;;;;;;;;;5096188;28;20211;-67
2022/09/08 08:03:22;;;;;;;2.47;2.17;;;;;;;;;;5096150;28;20214;-67
2022/09/08 08:05:52;;;;;;;2.30;2.20;;;;;;;;;;5096446;28;20206;-66
2022/09/08 08:08:22;;;;;;;2.50;2.30;;;;;;;;;;5094971;28;20199;-66
2022/09/08 08:10:54;;;;;;;2.35;2.17;;;;;;;;;;5096131;28;20215;-66
2022/09/08 08:13:27;;;;;;;2.60;2.40;;;;;;;;;;5096629;28;20208;-68
2022/09/08 08:15:59;;;;;;;2.60;2.40;;;;;;;;;;5096867;28;20699;-67
2022/09/08 08:18:33;;;;;;;2.70;2.42;;;;;;;;;;5096208;28;20211;-66
2022/09/08 08:21:04;;;;;;;2.67;2.47;;;;;;;;;;5078780;28;20203;-67
2022/09/08 08:23:40;;;;;;;2.58;2.38;;;;;;;;;;5075998;28;20212;-67
2022/09/08 08:26:13;;;;;;;2.40;2.28;;;;;;;;;;5076333;28;20236;-66
2022/09/08 08:28:43;;;;;;;2.50;2.30;;;;;;;;;;5077123;28;20211;-66
2022/09/08 08:31:17;;;;;;;2.60;2.40;;;;;;;;;;5076686;28;20215;-67
2022/09/08 08:33:45;;;;;;;2.22;2.13;;;;;;;;;;5075792;28;20216;-66
2022/09/08 08:36:15;;;;;;;2.30;2.10;;;;;;;;;;5076735;28;20204;-66
2022/09/08 08:38:43;;;;;;;2.25;2.08;;;;;;;;;;5075803;28;20695;-67
2022/09/08 08:41:16;;;;;;;2.45;2.25;;;;;;;;;;5076156;28;20200;-67
2022/09/08 08:44:04;;;;;;;2.00;1.90;;;;;;;;;;5075206;28;20200;-67
2022/09/08 08:46:47;;;;;;;2.30;2.10;;;;;;;;;;5069262;28;20260;-66
2022/09/08 08:49:31;;;;;;;2.00;1.90;;;;;;;;;;5073747;28;20588;-67
2022/09/08 08:52:12;;;;;;;2.13;1.98;;;;;;;;;;5064391;28;20230;-67
2022/09/08 08:54:50;;;;;;;2.20;2.10;;;;;;;;;;5075176;28;20215;-67
2022/09/08 08:57:27;;;;;;;2.30;2.10;;;;;;;;;;5074430;28;20231;-67
2022/09/08 09:00:12;;;;;;;2.00;1.90;;;;;;;;;;5075321;28;20204;-66
2022/09/08 09:02:50;;;;;;;2.42;2.22;;;;;;;;;;5075317;28;20227;-66
2022/09/08 09:05:35;;;;;;;2.05;1.95;;;;;;;;;;5074914;28;20253;-67
2022/09/08 09:08:18;;;;;;;2.03;1.90;;;;;;;;;;5064832;28;20315;-67
2022/09/08 09:10:49;;;;;;;1.90;1.77;;;;;;;;;;5075279;28;20219;-66
2022/09/08 09:13:25;;;;;;;2.13;2.03;;;;;;;;;;5074574;28;20212;-67
2022/09/08 09:15:58;;;;;;;2.20;2.00;;;;;;;;;;5092249;28;20634;-66
2022/09/08 09:18:43;;;;;;;2.05;1.90;;;;;;;;;;5095259;28;20591;-66
2022/09/08 09:21:15;;;;;;;1.80;1.70;;;;;;;;;;5095125;28;20214;-66
2022/09/08 09:23:52;;;;;;;1.90;1.80;;;;;;;;;;5094713;28;20286;-67
2022/09/08 09:26:20;;;;;;;1.90;1.80;;;;;;;;;;5095446;28;20610;-66
2022/09/08 09:29:01;;;;;;;1.85;1.75;;;;;;;;;;5094767;28;20593;-67
2022/09/08 09:31:47;;;;;;;1.90;1.80;;;;;;;;;;5094983;28;20208;-67
2022/09/08 09:34:24;;;;;;;1.98;1.88;;;;;;;;;;5095035;28;20754;-66
2022/09/08 09:37:02;;;;;;;1.83;1.67;;;;;;;;;;5094391;28;20210;-68
2022/09/08 09:39:44;;;;;;;1.75;1.65;;;;;;;;;;5094948;28;20234;-67
2022/09/08 09:42:22;;;;;;;1.83;1.70;;;;;;;;;;5087332;28;20226;-67
2022/09/08 09:45:00;;;;;;;1.83;1.73;;;;;;;;;;5074118;28;20484;-67
2022/09/08 09:47:40;;;;;;;1.80;1.70;;;;;;;;;;5074256;28;20537;-67
2022/09/08 09:50:30;;;;;;;1.90;1.80;;;;;;;;;;5074677;28;20211;-67
2022/09/08 09:53:01;;;;;;;1.80;1.70;;;;;;;;;;5074927;28;20239;-66
2022/09/08 09:55:38;;;;;;;1.98;1.88;;;;;;;;;;5073958;28;20200;-66
2022/09/08 09:58:23;;;;;;;2.05;1.85;;;;;;;;;;5072962;28;20206;-66
2022/09/08 10:01:17;;;;;;;2.13;1.92;;;;;;;;;;5060689;28;20208;-66
2022/09/08 10:04:02;;;;;;;1.73;1.63;;;;;;;;;;5025752;28;20608;-66
2022/09/08 10:06:42;;;;;;;1.85;1.58;;;;;;;;;;5060579;28;20210;-66
2022/09/08 10:09:24;;;;;;;1.48;1.38;;;;;;;;;;5084221;28;20288;-66
2022/09/08 10:11:59;;;;;;;1.60;1.50;;;;;;;;;;5091014;28;20199;-68
2022/09/08 10:14:46;;;;;;;1.50;1.40;;;;;;;;;;5094137;28;20218;-67
2022/09/08 10:17:26;;;;;;;1.73;1.60;;;;;;;;;;5094730;28;20206;-66
2022/09/08 10:20:10;;;;;;;1.45;1.35;;;;;;;;;;5093540;28;20203;-67
2022/09/08 10:22:45;;;;;;;1.70;1.60;;;;;;;;;;5094758;28;20199;-67
2022/09/08 10:25:21;;;;;;;1.58;1.48;;;;;;;;;;5092951;28;20222;-67
2022/09/08 10:28:07;;;;;;;1.60;1.50;;;;;;;;;;5092424;28;20622;-66
2022/09/08 10:30:59;;;;;;;1.63;1.52;;;;;;;;;;5092609;28;20199;-67
2022/09/08 10:33:35;;;;;;;1.58;1.48;;;;;;;;;;5092656;28;20506;-67
2022/09/08 10:36:06;;;;;;;1.77;1.67;;;;;;;;;;5083445;28;20203;-67
2022/09/08 10:38:48;;;;;;;1.50;1.40;;;;;;;;;;5072295;28;20196;-67
2022/09/08 10:41:25;;;;;;;1.42;1.33;;;;;;;;;;5072836;28;20503;-66
2022/09/08 10:44:08;;;;;;;1.58;1.48;;;;;;;;;;5072636;28;20204;-67
2022/09/08 10:46:47;;;;;;;1.08;1.08;;;;;;;;;;5039567;28;20204;-66
2022/09/08 10:49:27;;;;;;;1.40;1.30;;;;;;;;;;5073095;28;20215;-67
2022/09/08 10:52:16;;;;;;;1.38;1.27;;;;;;;;;;5072818;28;20211;-67
2022/09/08 10:54:53;;;;;;;1.40;1.30;;;;;;;;;;5066954;28;20207;-66
2022/09/08 10:57:22;;;;;;;1.40;1.30;;;;;;;;;;5076600;28;20204;-67
2022/09/08 10:59:59;;;;;;;1.40;1.30;;;;;;;;;;5077748;28;20215;-67
2022/09/08 11:02:43;;;;;;;1.10;1.00;;;;;;;;;;5077657;28;20689;-67
2022/09/08 11:05:34;;;;;;;1.35;1.25;;;;;;;;;;5077327;28;20208;-66
2022/09/08 11:08:08;;;;;;;1.17;1.17;;;;;;;;;;5076679;28;20223;-66
2022/09/08 11:10:56;;;;;;;1.30;1.20;;;;;;;;;;5077389;28;20204;-66
2022/09/08 11:13:30;;;;;;;1.30;1.20;;;;;;;;;;5043492;28;20207;-67
2022/09/08 11:16:17;;;;;;;1.30;1.20;;;;;;;;;;5097715;28;20239;-66
2022/09/08 11:18:53;;;;;;;1.73;1.17;;;;;;;;;;5097372;28;20571;-67
2022/09/08 11:21:23;;;;;;;1.20;1.10;;;;;;;;;;5096837;28;20215;-67
2022/09/08 11:23:58;;;;;;;1.30;1.20;;;;;;;;;;5096751;28;20203;-68
2022/09/08 11:26:36;;;;;;;1.30;1.20;;;;;;;;;;5096393;28;20203;-67
2022/09/08 11:29:09;;;;;;;1.10;1.00;;;;;;;;;;5096056;28;20723;-66
2022/09/08 11:31:41;;;;;;;1.13;1.05;;;;;;;;;;5095718;28;20200;-66
2022/09/08 11:34:27;;;;;;;1.10;1.10;;;;;;;;;;5095836;28;20484;-67
2022/09/08 11:37:08;;;;;;;1.10;1.00;;;;;;;;;;5095953;28;20204;-67
2022/09/08 11:39:43;;;;;;;1.10;1.00;;;;;;;;;;5094792;28;20288;-66
2022/09/08 11:42:26;;;;;;;1.15;1.05;;;;;;;;;;5095566;28;20207;-67
2022/09/08 11:44:59;;;;;;;0.90;0.90;;;;;;;;;;5095799;28;20218;-67
2022/09/08 11:47:53;;;;;;;0.90;0.90;;;;;;;;;;5095026;28;20232;-66
2022/09/08 11:50:26;;;;;;;1.17;1.13;;;;;;;;;;5094985;28;20264;-66
2022/09/08 11:53:09;;;;;;;0.93;0.93;;;;;;;;;;5096909;28;20203;-68
2022/09/08 11:55:47;;;;;;;0.90;0.90;;;;;;;;;;5083026;28;20904;-67
2022/09/08 11:58:23;;;;;;;1.05;0.95;;;;;;;;;;5088426;28;20204;-66
2022/09/08 12:01:01;;;;;;;0.90;0.90;;;;;;;;;;5076205;28;20231;-66
2022/09/08 12:03:58;;;;;;;1.00;1.00;;;;;;;;;;5076610;28;20258;-67
2022/09/08 12:06:36;;;;;;;0.90;0.90;;;;;;;;;;5076065;28;20517;-67
2022/09/08 12:09:14;;;;;;;0.90;0.90;;;;;;;;;;5074445;28;20235;-67
2022/09/08 12:11:53;;;;;;;0.90;0.90;;;;;;;;;;5075386;28;20196;-67
2022/09/08 12:14:25;;;;;;;0.90;0.90;;;;;;;;;;5075268;28;20204;-67
2022/09/08 12:16:58;;;;;;;0.90;0.90;;;;;;;;;;5075106;28;20600;-67
2022/09/08 12:19:32;;;;;;;0.93;0.90;;;;;;;;;;5074284;28;20577;-67
2022/09/08 12:22:08;;;;;;;0.90;0.88;;;;;;;;;;5075550;28;20207;-67
2022/09/08 12:24:44;;;;;;;0.98;0.98;;;;;;;;;;5074856;28;20208;-67
2022/09/08 12:27:20;;;;;;;1.17;0.88;;;;;;;;;;5092524;28;20210;-67
2022/09/08 12:30:04;;;;;;;1.15;1.00;;;;;;;;;;5094533;28;20203;-67
2022/09/08 12:32:45;;;;;;;0.85;0.85;;;;;;;;;;5094057;28;20268;-67
2022/09/08 12:35:18;;;;;;;0.80;0.80;;;;;;;;;;5094599;28;20211;-67
2022/09/08 12:37:53;;;;;;;1.02;0.90;;;;;;;;;;5094784;28;20495;-66
2022/09/08 12:40:38;;;;;;;1.08;0.90;;;;;;;;;;5094719;28;20222;-67
2022/09/08 12:43:15;;;;;;;1.55;0.80;;;;;;;;;;5094174;28;20200;-67
2022/09/08 12:45:48;;;;;;;0.80;0.80;;;;;;;;;;5095917;28;20273;-68
2022/09/08 12:48:22;;;;;;;1.67;0.80;;;;;;;;;;5094544;28;20235;-67
2022/09/08 12:50:52;;;;;;;0.90;0.90;;;;;;;;;;5094640;28;20239;-67
2022/09/08 12:53:37;;;;;;;0.75;0.75;;;;;;;;;;5084644;28;20201;-67
2022/09/08 12:56:05;;;;;;;0.77;0.77;;;;;;;;;;5074849;28;20216;-68
2022/09/08 12:58:38;;;;;;;0.80;0.80;;;;;;;;;;5073786;28;20200;-67
2022/09/08 13:01:11;;;;;;;0.80;0.80;;;;;;;;;;5074197;28;20200;-67
2022/09/08 13:03:40;;;;;;;0.85;0.85;;;;;;;;;;5074193;28;20207;-68
2022/09/08 13:06:18;;;;;;;1.10;1.00;;;;;;;;;;5074022;28;20204;-67
2022/09/08 13:08:58;;;;;;;1.15;0.93;;;;;;;;;;5073448;28;20231;-67
2022/09/08 13:11:31;;;;;;;0.70;0.65;;;;;;;;;;5073054;28;20204;-67
2022/09/08 13:14:02;;;;;;;1.63;1.00;;;;;;;;;;5073356;28;20209;-67
2022/09/08 13:16:35;;;;;;;0.65;0.65;;;;;;;;;;5074519;28;20314;-67
2022/09/08 13:19:05;;;;;;;0.65;0.65;;;;;;;;;;5072897;28;20655;-67
2022/09/08 13:21:37;;;;;;;1.40;0.80;;;;;;;;;;5086994;28;20210;-67
2022/09/08 13:24:07;;;;;;;0.70;0.70;;;;;;;;;;5091616;28;20219;-67
2022/09/08 13:26:49;;;;;;;0.85;0.85;;;;;;;;;;5094222;28;20516;-68
2022/09/08 13:29:38;;;;;;;0.80;0.80;;;;;;;;;;5092181;28;20293;-68
2022/09/08 13:32:13;;;;;;;1.05;0.80;;;;;;;;;;5093334;28;20215;-67
2022/09/08 13:34:51;;;;;;;1.05;0.95;;;;;;;;;;5093577;28;20213;-67
2022/09/08 13:37:45;;;;;;;0.85;0.70;;;;;;;;;;5093611;28;20203;-67
2022/09/08 13:40:27;;;;;;;0.90;0.90;;;;;;;;;;5093925;28;20206;-67
2022/09/08 13:43:02;;;;;;;1.88;0.70;;;;;;;;;;5079685;28;20618;-67
2022/09/08 13:45:35;;;;;;;0.95;0.80;;;;;;;;;;5092618;28;20214;-67
2022/09/08 13:48:09;;;;;;;1.08;0.98;;;;;;;;;;5084678;28;20335;-67
2022/09/08 13:50:45;;;;;;;1.48;0.70;;;;;;;;;;5072361;28;20196;-67
2022/09/08 13:53:25;;;;;;;0.75;0.75;;;;;;;;;;5072740;28;20211;-67
2022/09/08 13:55:57;;;;;;;0.70;0.70;;;;;;;;;;5072999;28;20218;-67
2022/09/08 13:58:34;;;;;;;0.77;0.77;;;;;;;;;;5073438;28;20200;-67
2022/09/08 14:01:05;;;;;;;0.70;0.70;;;;;;;;;;5072819;28;20215;-67
2022/09/08 14:03:33;;;;;;;0.70;0.70;;;;;;;;;;5072836;28;20201;-67
2022/09/08 14:06:01;;;;;;;1.40;0.60;;;;;;;;;;5073586;28;20216;-67
2022/09/08 14:08:30;;;;;;;1.10;0.80;;;;;;;;;;5072842;28;20220;-68
2022/09/08 14:11:16;;;;;;;0.70;0.70;;;;;;;;;;5073097;28;20239;-67
2022/09/08 14:13:44;;;;;;;0.70;0.70;;;;;;;;;;5072932;28;20207;-67
2022/09/08 14:16:18;;;;;;;0.55;0.55;;;;;;;;;;5086003;28;20200;-67
2022/09/08 14:18:57;;;;;;;0.70;0.70;;;;;;;;;;5093041;28;20222;-67
2022/09/08 14:21:30;;;;;;;0.70;0.70;;;;;;;;;;5092884;28;20206;-67
2022/09/08 14:24:05;;;;;;;1.00;0.70;;;;;;;;;;5093116;28;20199;-67
2022/09/08 14:26:38;;;;;;;0.60;0.60;;;;;;;;;;5093719;28;20238;-67
2022/09/08 14:29:13;;;;;;;1.08;0.70;;;;;;;;;;5078758;28;20302;-67
2022/09/08 14:31:46;;;;;;;0.70;0.70;;;;;;;;;;5072990;28;20199;-67
2022/09/08 14:34:24;;;;;;;0.70;0.70;;;;;;;;;;5072574;28;20212;-67
2022/09/08 14:36:56;;;;;;;0.90;0.80;;;;;;;;;;5072860;28;20552;-67
2022/09/08 14:39:25;;;;;;;0.80;0.60;;;;;;;;;;5082219;28;20204;-67
2022/09/08 14:41:53;;;;;;;1.63;0.80;;;;;;;;;;5093109;28;20204;-67
2022/09/08 14:44:31;;;;;;;0.98;0.68;;;;;;;;;;5073395;28;20660;-67
2022/09/08 14:47:02;;;;;;;0.85;0.60;;;;;;;;;;5073274;28;20236;-67
2022/09/08 14:49:51;;;;;;;0.68;0.68;;;;;;;;;;5089432;28;20223;-67
2022/09/08 14:52:26;;;;;;;0.60;0.60;;;;;;;;;;5067288;28;20215;-67
2022/09/08 14:55:03;;;;;;;0.70;0.65;;;;;;;;;;5092173;28;20211;-67
2022/09/08 14:57:34;;;;;;;1.00;0.50;;;;;;;;;;5091839;28;20203;-67
2022/09/08 15:00:12;;;;;;;0.70;0.70;;;;;;;;;;5092739;28;20207;-68
2022/09/08 15:02:48;;;;;;;1.73;0.80;;;;;;;;;;5091992;28;20211;-67
2022/09/08 15:05:18;;;;;;;0.70;0.70;;;;;;;;;;5093004;28;20203;-67
2022/09/08 15:07:48;;;;;;;2.03;0.80;;;;;;;;;;5092590;28;20211;-68
2022/09/08 15:10:18;;;;;;;1.45;0.82;;;;;;;;;;5090826;28;20745;-67
2022/09/08 15:12:58;;;;;;;0.80;0.70;;;;;;;;;;5092807;28;20295;-68
2022/09/08 15:15:31;;;;;;;2.53;0.80;;;;;;;;;;5093306;28;20299;-67
2022/09/08 15:18:02;;;;;;;3.08;1.00;;;;;;;;;;5093058;28;20462;-67
2022/09/08 15:20:34;;;;;;;0.80;0.80;;;;;;;;;;5093748;28;20214;-67
2022/09/08 15:23:13;;;;;;;0.60;0.60;;;;;;;;;;5092590;28;20545;-67